West Roxbury, MA (02132)

1:37 PM EST on December 04, 2016 (GMT -0500)
Roslindale (Rosecliff) | | Change Station

Elev 157 ft 42.28 °N, 71.13 °W | Updated 21 seconds ago

Clear
Clear
41.2 °F
Feels Like 41 °F
N
0.0
Wind Variable Wind from WNW
Gusts 0.0 mph

Today
High -- | Low -- °F
--% Chance of Precip.
Yesterday
High -- | Low -- °F
Precip. -- in
Pressure 30.15 in
Visibility 10.0 miles
Clouds Clear
Windchill 41 °F
Dew Point 19 °F
Humidity 41%
Rainfall 0.00 in
Snow Depth Not available.
6:57 AM 4:12 PM
Waxing Crescent, 24% visible
METAR KOWD 041753Z 30009KT 10SM CLR 06/M07 A3015 RMK AO2 SLP209 T00561067 10056 20017 56015
Pressure 30.15 in
Visibility 10.0 miles
Clouds Clear
Windchill 41 °F
Dew Point 19 °F
Humidity 41%
Rainfall 0.00 in
Snow Depth Not available.
6:57 AM 4:12 PM
Waxing Crescent, 24% visible
METAR KOWD 041753Z 30009KT 10SM CLR 06/M07 A3015 RMK AO2 SLP209 T00561067 10056 20017 56015

10-Day Weather Forecast

Almanac

Astronomy

Dec. 04, 2016 Rise Set
Actual Time
Civil Twilight
Nautical Twilight
Astronomical Twilight
Moon
Length of Visible Light
Length of Day
Tomorrow will be .
, % of the Moon is Illuminated

Today's Extremes

State Highs State Lows

Community

WunderPhotos

Upload Photos

1,955,640 photos uploaded!

WunderBlog® & News

Nearby

Air Quality

  Air Quality AQ Index Pollutant
Not available.

Snow Depth

Station Depth Elevation

Earthquake Activity

City Distance Mag. Time & Date
Minimum magnitude displayed is 2.5.

Coastal Water Temperatures

Place Temperature

Stations

Nearby Weather Stations

Station Location Temp. Windchill Dew Point Humidity Wind Precip. Elev Updated Type
                   

Watches & Warnings

There are currently no watches in effect.